createdAt,value
2022-09-20T00:05:38.809Z,98447.52
2022-09-20T00:16:09.837Z,98456.61
2022-09-20T00:26:38.278Z,98454.33
2022-09-20T00:37:06.427Z,98462.17
2022-09-20T00:47:43.309Z,98462.44
2022-09-20T00:58:12.695Z,98460.23
2022-09-20T01:08:43.660Z,98459.89
2022-09-20T01:19:20.829Z,98466.55
2022-09-20T01:30:02.892Z,98459.65
2022-09-20T01:40:40.148Z,98469.30
2022-09-20T01:51:46.456Z,98470.20
2022-09-20T02:02:37.459Z,98466.08
2022-09-20T02:13:10.627Z,98461.53
2022-09-20T02:23:50.976Z,98462.42
2022-09-20T02:34:39.513Z,98464.80
2022-09-20T02:45:10.590Z,98469.85
2022-09-20T02:55:43.547Z,98474.27
2022-09-20T03:06:22.431Z,98478.41
2022-09-20T03:17:03.970Z,98484.99
2022-09-20T03:27:41.237Z,98493.16
2022-09-20T03:38:26.739Z,98502.55
2022-09-20T03:49:32.633Z,98502.23
2022-09-20T04:00:16.405Z,98506.54
2022-09-20T04:10:55.877Z,98509.64
2022-09-20T04:21:28.767Z,98518.40
2022-09-20T04:32:03.873Z,98522.60
2022-09-20T04:43:09.145Z,98534.02
2022-09-20T04:54:13.612Z,98532.53
2022-09-20T05:05:05.441Z,98539.39
2022-09-20T05:15:43.600Z,98548.05
2022-09-20T05:26:16.213Z,98557.32
2022-09-20T05:36:51.314Z,98562.78
2022-09-20T05:47:25.966Z,98559.98
2022-09-20T05:58:12.407Z,98563.95
2022-09-20T06:09:07.735Z,98570.23
2022-09-20T06:19:42.356Z,98574.61
2022-09-20T06:30:18.320Z,98576.83
2022-09-20T06:41:07.813Z,98583.65
2022-09-20T06:51:39.364Z,98593.55
2022-09-20T07:02:08.427Z,98599.71
2022-09-20T07:12:36.813Z,98615.00
2022-09-20T07:23:05.196Z,98630.77
2022-09-20T07:33:33.136Z,98647.68
2022-09-20T07:44:21.080Z,98649.30
2022-09-20T07:54:50.156Z,98659.33
2022-09-20T08:05:18.378Z,98663.70
2022-09-20T08:15:46.685Z,98668.98
2022-09-20T08:26:13.672Z,98671.59
2022-09-20T08:36:46.364Z,98677.10
2022-09-20T08:47:21.348Z,98676.23
2022-09-20T08:57:52.189Z,98684.45
2022-09-20T09:08:23.918Z,98682.33
2022-09-20T09:31:23.150Z,98681.95
2022-09-20T09:41:51.479Z,98681.48
2022-09-20T09:52:27.033Z,98683.05
2022-09-20T10:03:12.354Z,98676.73
2022-09-20T10:13:46.683Z,98672.21
2022-09-20T10:24:32.002Z,98665.95
2022-09-20T10:35:30.132Z,98659.91
2022-09-20T10:46:30.922Z,98665.51
2022-09-20T10:57:05.082Z,98662.05
2022-09-20T11:07:48.896Z,98654.86
2022-09-20T11:18:23.635Z,98653.70
2022-09-20T11:28:56.161Z,98669.91
2022-09-20T11:39:29.200Z,98676.17
2022-09-20T11:50:24.230Z,98684.47
2022-09-20T12:00:55.442Z,98689.06
2022-09-20T12:11:32.575Z,98678.55
2022-09-20T12:22:27.143Z,98665.60
2022-09-20T12:32:57.609Z,98665.21
2022-09-20T12:43:28.302Z,98661.05
2022-09-20T12:54:06.856Z,98663.48
2022-09-20T13:05:00.530Z,98655.08
2022-09-20T13:15:29.850Z,98651.67
2022-09-20T13:25:59.310Z,98660.28
2022-09-20T13:36:32.003Z,98662.36
2022-09-20T13:46:59.963Z,98662.14
2022-09-20T13:57:31.242Z,98659.48
2022-09-20T14:08:01.787Z,98666.77
2022-09-20T14:18:29.928Z,98665.46
2022-09-20T14:28:58.018Z,98674.80
2022-09-20T14:39:25.964Z,98676.23
2022-09-20T14:50:04.101Z,98679.77
2022-09-20T15:00:46.685Z,98680.17
2022-09-20T15:11:16.856Z,98685.39
2022-09-20T15:21:45.147Z,98687.99
2022-09-20T15:32:14.032Z,98694.05
2022-09-20T15:42:43.554Z,98708.51
2022-09-20T15:53:12.731Z,98722.13
2022-09-20T16:03:41.018Z,98734.89
2022-09-20T16:14:09.270Z,98748.27
2022-09-20T16:24:38.628Z,98753.96
2022-09-20T16:35:08.324Z,98762.27
2022-09-20T16:45:36.729Z,98776.61
2022-09-20T16:56:06.931Z,98788.54
2022-09-20T17:06:36.798Z,98802.29
2022-09-20T17:17:05.494Z,98817.93
2022-09-20T17:27:37.747Z,98820.77
2022-09-20T17:38:06.375Z,98841.29
2022-09-20T17:48:34.346Z,98849.48
2022-09-20T17:59:03.856Z,98864.65
2022-09-20T18:09:31.758Z,98878.28
2022-09-20T18:19:58.108Z,98889.23
2022-09-20T18:30:26.598Z,98900.13
2022-09-20T18:41:00.970Z,98912.64
2022-09-20T18:51:30.316Z,98922.44
2022-09-20T19:02:20.074Z,98929.23
2022-09-20T19:12:54.509Z,98938.25
2022-09-20T19:23:36.430Z,98951.69
2022-09-20T19:34:11.568Z,98959.39
2022-09-20T19:44:49.523Z,98969.79
2022-09-20T19:55:19.677Z,98968.86
2022-09-20T20:05:55.028Z,98966.70
2022-09-20T20:16:30.027Z,98974.48
2022-09-20T20:26:57.918Z,98975.41
2022-09-20T20:37:28.288Z,98976.67
2022-09-20T20:48:00.399Z,98976.29
2022-09-20T20:58:33.484Z,98979.55
2022-09-20T21:09:02.185Z,98970.30
2022-09-20T21:19:30.164Z,98965.60
2022-09-20T21:29:58.464Z,98976.18
2022-09-20T21:40:25.647Z,98987.95
2022-09-20T21:50:53.910Z,98996.00
2022-09-20T22:01:23.022Z,98998.45
2022-09-20T22:11:51.770Z,99003.53
2022-09-20T22:22:19.719Z,98998.34
2022-09-20T22:32:47.607Z,99004.80
2022-09-20T22:43:15.471Z,99008.28
2022-09-20T22:53:44.079Z,99013.88
2022-09-20T23:04:14.017Z,99019.49
2022-09-20T23:14:41.894Z,99019.75
2022-09-20T23:25:11.115Z,99020.49
2022-09-20T23:35:45.642Z,99029.91
2022-09-20T23:46:14.972Z,99037.07
2022-09-20T23:56:43.028Z,99035.88
